Time;durP1;ratioP1;P1;durP2;ratioP2;P2;SDS_P1;SDS_P2;PMS_P1;PMS_P2;Temp;Humidity;BMP_temperature;BMP_pressure;BME280_temperature;BME280_humidity;BME280_pressure;Samples;Min_cycle;Max_cycle;Signal;HPM_P1;HPM_P2
2021/08/29 00:01:53;;;;;;;13.32;8.60;;;14.60;99.90;;;;;;7408394;19;20014;-90
2021/08/29 00:04:22;;;;;;;12.32;7.57;;;14.60;99.90;;;;;;7407347;19;20040;-92
2021/08/29 00:06:52;;;;;;;12.93;8.52;;;14.60;99.90;;;;;;7405993;19;20444;-94
2021/08/29 00:09:28;;;;;;;13.15;8.73;;;14.70;99.90;;;;;;7408222;19;20070;-90
2021/08/29 00:12:02;;;;;;;13.35;7.90;;;14.70;99.90;;;;;;7405922;19;20011;-91
2021/08/29 00:14:42;;;;;;;11.95;7.80;;;14.70;99.90;;;;;;7408649;19;20018;-93
2021/08/29 00:17:15;;;;;;;14.32;8.85;;;14.70;99.90;;;;;;7407020;19;20289;-93
2021/08/29 00:19:45;;;;;;;12.43;8.45;;;14.80;99.90;;;;;;7419693;19;20011;-91
2021/08/29 00:22:15;;;;;;;11.63;7.88;;;14.80;99.90;;;;;;7406397;19;20021;-91
2021/08/29 00:24:47;;;;;;;13.75;8.70;;;14.80;99.90;;;;;;7405116;19;20324;-90
2021/08/29 00:27:16;;;;;;;10.93;7.82;;;14.90;99.90;;;;;;7410667;19;20006;-91
2021/08/29 00:29:46;;;;;;;14.93;8.07;;;14.80;99.90;;;;;;7419367;19;20011;-90
2021/08/29 00:32:15;;;;;;;11.55;8.05;;;14.80;99.90;;;;;;7407009;19;20007;-91
2021/08/29 00:34:45;;;;;;;12.55;7.97;;;14.80;99.90;;;;;;7407180;19;20042;-93
2021/08/29 00:37:17;;;;;;;10.32;7.45;;;14.80;99.90;;;;;;7410005;19;20086;-93
2021/08/29 00:39:50;;;;;;;13.05;8.75;;;14.90;99.90;;;;;;7406915;19;20313;-93
2021/08/29 00:42:20;;;;;;;12.65;8.10;;;15.00;99.90;;;;;;7404250;19;20014;-93
2021/08/29 00:44:50;;;;;;;12.02;8.00;;;15.00;99.90;;;;;;7405739;19;20079;-93
2021/08/29 00:47:19;;;;;;;13.27;8.65;;;15.00;99.90;;;;;;7407701;19;20090;-93
2021/08/29 00:49:49;;;;;;;12.88;7.72;;;15.00;99.90;;;;;;7410425;19;20031;-93
2021/08/29 00:52:23;;;;;;;15.15;8.90;;;15.00;99.90;;;;;;7401502;19;20010;-94
2021/08/29 00:54:57;;;;;;;13.93;8.50;;;15.00;99.90;;;;;;7404420;19;20010;-94
2021/08/29 00:57:44;;;;;;;11.80;7.50;;;15.10;99.90;;;;;;7407990;19;20036;-92
2021/08/29 01:00:16;;;;;;;12.90;8.40;;;15.10;99.90;;;;;;7422868;19;20011;-91
2021/08/29 01:02:50;;;;;;;13.48;9.00;;;15.10;99.90;;;;;;7406240;19;20003;-93
2021/08/29 01:05:29;;;;;;;11.32;8.27;;;15.00;99.90;;;;;;7413337;19;20013;-93
2021/08/29 01:08:20;;;;;;;14.33;9.33;;;15.10;99.90;;;;;;7423058;19;20014;-92
2021/08/29 01:11:00;;;;;;;15.13;9.02;;;15.10;99.90;;;;;;7414919;19;20255;-93
2021/08/29 01:13:36;;;;;;;12.50;8.73;;;15.10;99.90;;;;;;7409812;19;20021;-90
2021/08/29 01:16:10;;;;;;;14.00;9.02;;;15.10;99.90;;;;;;7409815;19;20034;-90
2021/08/29 01:18:51;;;;;;;13.38;8.77;;;15.20;99.90;;;;;;7415542;19;20019;-91
2021/08/29 01:21:28;;;;;;;17.10;8.60;;;15.10;99.90;;;;;;7420601;19;20010;-94
2021/08/29 01:24:05;;;;;;;13.15;8.68;;;15.10;99.90;;;;;;7405406;19;20430;-94
2021/08/29 01:26:50;;;;;;;14.18;8.82;;;15.20;99.90;;;;;;7407366;19;20015;-93
2021/08/29 01:29:29;;;;;;;13.40;8.90;;;15.10;99.90;;;;;;7416593;19;20039;-93
2021/08/29 01:32:03;;;;;;;14.07;8.55;;;15.30;99.90;;;;;;7419701;19;20015;-93
2021/08/29 01:34:36;;;;;;;15.10;9.13;;;15.30;99.90;;;;;;7418446;19;20014;-93
2021/08/29 01:37:31;;;;;;;14.60;9.32;;;15.40;99.90;;;;;;7413621;19;20481;-93
2021/08/29 01:40:06;;;;;;;13.35;8.50;;;15.50;99.90;;;;;;7413998;19;20018;-94
2021/08/29 01:42:40;;;;;;;14.27;9.10;;;15.40;99.90;;;;;;7412802;19;20015;-94
2021/08/29 01:45:14;;;;;;;12.98;8.68;;;15.40;99.90;;;;;;7416635;19;20023;-94
2021/08/29 01:47:48;;;;;;;13.68;9.27;;;15.30;99.90;;;;;;7412705;19;20025;-93
2021/08/29 01:50:23;;;;;;;14.88;9.52;;;15.20;99.90;;;;;;7409825;19;20359;-93
2021/08/29 01:52:59;;;;;;;13.80;9.43;;;15.10;99.90;;;;;;7406602;19;20428;-93
2021/08/29 01:55:49;;;;;;;13.15;9.02;;;15.10;99.90;;;;;;7405744;19;20045;-92
2021/08/29 01:58:44;;;;;;;14.20;9.52;;;15.10;99.90;;;;;;7403444;19;20313;-93
2021/08/29 02:01:18;;;;;;;15.65;9.57;;;15.10;99.90;;;;;;7414537;19;20007;-93
2021/08/29 02:03:54;;;;;;;14.55;9.98;;;15.10;99.90;;;;;;7432285;19;20031;-92
2021/08/29 02:06:35;;;;;;;13.70;9.57;;;15.20;99.90;;;;;;7406426;19;20007;-92
2021/08/29 02:09:08;;;;;;;15.75;9.77;;;15.30;99.90;;;;;;7405741;19;20009;-93
2021/08/29 02:11:52;;;;;;;16.35;10.65;;;15.30;99.90;;;;;;7408483;19;20014;-93
2021/08/29 02:14:37;;;;;;;15.63;9.82;;;15.30;99.90;;;;;;7406326;19;20014;-92
2021/08/29 02:17:13;;;;;;;15.25;10.35;;;15.20;99.90;;;;;;7407575;19;20010;-93
2021/08/29 02:19:44;;;;;;;15.02;9.88;;;15.20;99.90;;;;;;7404589;19;20015;-91
2021/08/29 02:22:13;;;;;;;14.77;10.10;;;15.10;99.90;;;;;;7402631;19;20011;-93
2021/08/29 02:24:46;;;;;;;17.95;11.30;;;15.10;99.90;;;;;;7417003;19;20007;-92
2021/08/29 02:27:18;;;;;;;18.38;10.55;;;15.30;99.90;;;;;;7426185;19;20023;-93
2021/08/29 02:29:51;;;;;;;12.98;9.20;;;15.40;99.90;;;;;;7405193;19;20006;-93
2021/08/29 02:32:26;;;;;;;15.68;10.30;;;15.40;99.90;;;;;;7405824;19;20010;-92
2021/08/29 02:34:57;;;;;;;15.98;10.40;;;15.30;99.90;;;;;;7422545;19;20011;-93
2021/08/29 02:37:39;;;;;;;16.30;11.05;;;15.40;99.90;;;;;;7425671;19;20018;-93
2021/08/29 02:40:11;;;;;;;17.27;10.98;;;15.40;99.90;;;;;;7427155;19;20009;-92
2021/08/29 02:42:44;;;;;;;18.25;11.18;;;15.40;99.90;;;;;;7431996;19;20022;-91
2021/08/29 02:45:15;;;;;;;16.00;10.45;;;15.40;99.90;;;;;;7432974;19;20010;-91
2021/08/29 02:47:49;;;;;;;15.27;9.77;;;15.40;99.90;;;;;;7431489;19;20009;-90
2021/08/29 02:50:22;;;;;;;16.17;10.25;;;15.40;99.90;;;;;;7433938;19;20043;-92
2021/08/29 02:52:56;;;;;;;15.27;9.63;;;15.60;99.90;;;;;;7437132;19;20026;-91
2021/08/29 02:55:27;;;;;;;16.17;10.38;;;15.50;99.90;;;;;;7419583;19;20015;-93
2021/08/29 02:58:03;;;;;;;16.40;10.55;;;15.50;99.90;;;;;;7405740;19;20439;-92
2021/08/29 03:01:07;;;;;;;13.95;9.90;;;15.60;99.90;;;;;;7403323;19;20021;-92
2021/08/29 03:04:14;;;;;;;15.40;9.13;;;15.60;99.90;;;;;;7404371;19;20027;-92
2021/08/29 03:06:45;;;;;;;14.15;10.05;;;15.50;99.90;;;;;;7403758;19;20010;-90
2021/08/29 03:09:15;;;;;;;14.65;9.45;;;15.40;99.90;;;;;;7428505;19;20035;-92
2021/08/29 03:11:50;;;;;;;15.73;10.73;;;15.40;99.90;;;;;;7413234;19;20007;-90
2021/08/29 03:14:46;;;;;;;16.75;10.48;;;15.40;99.90;;;;;;7407834;19;20302;-91
2021/08/29 03:17:21;;;;;;;15.55;10.05;;;15.40;99.90;;;;;;7427631;19;20074;-90
2021/08/29 03:19:59;;;;;;;12.88;9.10;;;15.40;99.90;;;;;;7420614;19;20014;-90
2021/08/29 03:22:40;;;;;;;14.27;9.75;;;15.40;99.90;;;;;;7404758;19;20035;-91
2021/08/29 03:25:11;;;;;;;15.48;10.55;;;15.40;99.90;;;;;;7403582;19;20108;-91
2021/08/29 03:27:41;;;;;;;14.27;9.93;;;15.30;99.90;;;;;;7407032;19;20014;-90
2021/08/29 03:30:13;;;;;;;17.08;10.65;;;15.30;99.90;;;;;;7407806;19;20018;-90
2021/08/29 03:32:46;;;;;;;16.50;11.10;;;15.30;99.90;;;;;;7410758;19;20020;-90
2021/08/29 03:35:32;;;;;;;15.88;9.98;;;15.30;99.90;;;;;;7406805;19;20011;-90
2021/08/29 03:38:05;;;;;;;16.92;11.45;;;15.30;99.90;;;;;;7406243;19;20014;-91
2021/08/29 03:40:36;;;;;;;16.00;10.50;;;15.30;99.90;;;;;;7405418;19;20328;-91
2021/08/29 03:43:07;;;;;;;14.13;9.75;;;15.30;99.90;;;;;;7401359;19;20011;-91
2021/08/29 03:45:39;;;;;;;16.85;10.82;;;15.20;99.90;;;;;;7405485;19;20014;-91
2021/08/29 03:48:11;;;;;;;15.98;10.65;;;15.30;99.90;;;;;;7401574;19;20011;-90
2021/08/29 03:50:43;;;;;;;14.88;10.75;;;15.30;99.90;;;;;;7404931;19;20037;-91
2021/08/29 03:53:13;;;;;;;16.45;11.10;;;15.40;99.90;;;;;;7404107;19;20007;-91
2021/08/29 03:55:47;;;;;;;17.80;9.82;;;15.50;99.90;;;;;;7403792;19;20018;-91
2021/08/29 03:58:17;;;;;;;16.83;10.10;;;15.50;99.90;;;;;;7404107;19;20019;-91
2021/08/29 04:00:50;;;;;;;13.32;9.75;;;15.50;99.90;;;;;;7404556;19;20018;-90
2021/08/29 04:03:24;;;;;;;14.18;10.32;;;15.40;99.90;;;;;;7401803;19;20025;-91
2021/08/29 04:06:20;;;;;;;17.50;10.50;;;15.40;99.90;;;;;;7403626;19;20078;-92
2021/08/29 04:08:54;;;;;;;18.48;10.57;;;15.50;99.90;;;;;;7404243;19;20018;-94
2021/08/29 04:11:25;;;;;;;17.80;10.18;;;15.50;99.90;;;;;;7414602;19;20038;-93
2021/08/29 04:13:57;;;;;;;17.70;10.70;;;15.50;99.90;;;;;;7418497;19;20017;-95
2021/08/29 04:16:36;;;;;;;;;;;15.40;99.90;;;;;;7405339;19;20014;-94
2021/08/29 04:19:26;;;;;;;20.42;11.23;;;15.20;99.90;;;;;;7408447;19;19915;-92
2021/08/29 04:22:01;;;;;;;16.30;11.32;;;15.00;99.90;;;;;;7405040;19;20011;-91
2021/08/29 04:24:34;;;;;;;19.40;12.05;;;14.90;99.90;;;;;;7400714;19;20090;-91
2021/08/29 04:27:05;;;;;;;19.02;12.57;;;14.80;99.90;;;;;;7411428;19;20012;-91
2021/08/29 04:29:35;;;;;;;19.83;12.60;;;14.70;99.90;;;;;;7412848;19;20007;-92
2021/08/29 04:32:07;;;;;;;21.08;13.20;;;14.60;99.90;;;;;;7410053;19;20084;-92
2021/08/29 04:34:38;;;;;;;13.23;8.95;;;14.50;99.90;;;;;;7425356;19;20036;-92
2021/08/29 04:37:16;;;;;;;20.70;11.77;;;14.70;99.90;;;;;;7413068;19;20010;-94
2021/08/29 04:39:49;;;;;;;18.00;11.57;;;14.90;99.90;;;;;;7412216;19;20007;-93
2021/08/29 04:42:24;;;;;;;19.73;13.27;;;15.00;99.90;;;;;;7408326;19;20011;-93
2021/08/29 04:44:56;;;;;;;21.73;13.70;;;15.00;99.90;;;;;;7423923;19;20321;-93
2021/08/29 04:47:29;;;;;;;11.30;7.65;;;14.90;99.90;;;;;;7413355;19;20055;-93
2021/08/29 04:50:05;;;;;;;12.73;8.25;;;14.90;99.90;;;;;;7433334;19;20030;-90
2021/08/29 04:52:38;;;;;;;15.23;8.27;;;14.70;99.90;;;;;;7432437;19;20014;-90
2021/08/29 04:55:10;;;;;;;10.50;7.40;;;14.60;99.90;;;;;;7428330;19;20014;-93
2021/08/29 04:57:41;;;;;;;10.65;6.88;;;14.50;99.90;;;;;;7417445;19;20019;-94
2021/08/29 05:00:15;;;;;;;10.35;6.28;;;14.40;99.90;;;;;;7400780;19;20006;-94
2021/08/29 05:02:50;;;;;;;8.43;5.72;;;14.40;99.90;;;;;;7402032;19;20019;-91
2021/08/29 05:05:20;;;;;;;6.07;3.88;;;14.20;99.90;;;;;;7403673;19;20520;-91
2021/08/29 05:07:52;;;;;;;5.78;4.20;;;14.10;99.90;;;;;;7402092;19;20010;-94
2021/08/29 05:10:21;;;;;;;4.65;2.90;;;14.40;99.90;;;;;;7401982;19;20011;-91
2021/08/29 05:13:04;;;;;;;5.25;3.00;;;14.50;99.90;;;;;;7419444;19;20007;-92
2021/08/29 05:15:34;;;;;;;5.18;2.80;;;14.50;99.90;;;;;;7414847;19;20017;-93
2021/08/29 05:18:03;;;;;;;6.28;3.28;;;14.50;99.90;;;;;;7400912;19;20018;-92
2021/08/29 05:20:39;;;;;;;5.88;3.30;;;14.40;99.90;;;;;;7403683;19;20015;-94
2021/08/29 05:23:32;;;;;;;6.50;3.47;;;14.20;99.90;;;;;;7405451;19;20011;-93
2021/08/29 05:26:24;;;;;;;6.47;3.20;;;14.10;99.90;;;;;;7404931;19;20021;-92
2021/08/29 05:28:56;;;;;;;4.90;2.70;;;14.20;99.90;;;;;;7399313;19;20011;-93
2021/08/29 05:31:31;;;;;;;5.38;3.22;;;14.20;99.90;;;;;;7401187;19;20010;-92
2021/08/29 05:34:00;;;;;;;6.18;3.58;;;14.20;99.90;;;;;;7400536;19;20017;-93
2021/08/29 05:36:30;;;;;;;5.07;3.08;;;14.20;99.90;;;;;;7401536;19;20014;-93
2021/08/29 05:39:01;;;;;;;5.20;2.58;;;14.20;99.90;;;;;;7412582;19;20317;-91
2021/08/29 05:41:37;;;;;;;4.38;2.50;;;14.30;99.90;;;;;;7427238;19;20006;-90
2021/08/29 05:44:26;;;;;;;4.38;2.70;;;14.30;99.90;;;;;;7431137;19;20020;-91
2021/08/29 05:46:55;;;;;;;4.47;2.40;;;14.40;99.90;;;;;;7428117;19;20003;-92
2021/08/29 05:49:28;;;;;;;4.85;2.53;;;14.50;99.90;;;;;;7427702;19;20011;-91
2021/08/29 05:51:58;;;;;;;4.05;2.65;;;14.70;99.90;;;;;;7430331;19;20009;-93
2021/08/29 05:54:31;;;;;;;4.22;2.42;;;14.80;99.90;;;;;;7417316;19;20035;-89
2021/08/29 05:57:00;;;;;;;3.88;2.20;;;14.90;99.90;;;;;;7403993;19;20003;-92
2021/08/29 05:59:30;;;;;;;4.78;2.22;;;14.80;99.90;;;;;;7401626;19;20014;-89
2021/08/29 06:05:03;;;;;;;4.75;2.10;;;14.70;99.90;;;;;;7390540;19;20003;-90
2021/08/29 06:07:45;;;;;;;3.20;1.70;;;14.60;99.90;;;;;;7402164;19;20006;-92
2021/08/29 06:10:19;;;;;;;3.40;1.90;;;14.60;99.90;;;;;;7402569;19;20022;-94
2021/08/29 06:12:51;;;;;;;3.60;1.73;;;14.70;99.90;;;;;;7405595;19;20017;-93
2021/08/29 06:15:21;;;;;;;3.25;1.88;;;14.70;99.90;;;;;;7414963;19;20002;-93
2021/08/29 06:17:51;;;;;;;2.50;1.52;;;14.80;99.90;;;;;;7407679;19;20007;-93
2021/08/29 06:20:20;;;;;;;3.17;1.70;;;14.80;99.90;;;;;;7405689;19;20003;-95
2021/08/29 06:22:56;;;;;;;5.03;1.83;;;14.80;99.90;;;;;;7406525;19;20428;-94
2021/08/29 06:25:57;;;;;;;6.80;1.55;;;14.90;99.90;;;;;;7416463;19;20009;-93
2021/08/29 06:28:45;;;;;;;3.35;1.75;;;14.90;99.90;;;;;;7419317;19;20006;-94
2021/08/29 06:31:33;;;;;;;3.80;1.40;;;14.90;99.90;;;;;;7410645;19;20015;-94
2021/08/29 06:34:23;;;;;;;3.38;1.65;;;15.00;99.90;;;;;;7415341;19;20023;-94
2021/08/29 06:36:53;;;;;;;2.63;1.58;;;15.10;99.90;;;;;;7408925;19;20018;-94
2021/08/29 06:39:28;;;;;;;4.65;1.80;;;15.10;99.90;;;;;;7407735;19;20006;-95
2021/08/29 06:42:01;;;;;;;3.28;1.98;;;15.20;99.90;;;;;;7413421;19;20324;-95
2021/08/29 06:44:34;;;;;;;4.50;2.55;;;15.30;99.90;;;;;;7427750;19;20055;-90
2021/08/29 06:47:28;;;;;;;4.78;2.63;;;15.30;99.90;;;;;;7419874;19;20011;-92
2021/08/29 06:50:20;;;;;;;4.68;2.80;;;15.20;99.90;;;;;;7418955;19;20018;-93
2021/08/29 06:53:10;;;;;;;3.75;2.60;;;15.30;99.90;;;;;;7408870;19;20428;-94
2021/08/29 06:56:00;;;;;;;7.32;4.10;;;15.30;99.90;;;;;;7416014;19;20030;-93
2021/08/29 06:58:50;;;;;;;7.22;3.50;;;15.40;99.90;;;;;;7408897;19;20010;-94
2021/08/29 07:01:22;;;;;;;5.50;3.60;;;15.50;99.90;;;;;;7406154;19;20021;-92
2021/08/29 07:03:51;;;;;;;5.72;3.90;;;15.50;99.90;;;;;;7409321;19;20015;-95
2021/08/29 07:06:23;;;;;;;6.65;3.92;;;15.50;99.90;;;;;;7416810;19;20035;-93
2021/08/29 07:09:30;;;;;;;6.00;4.03;;;15.50;99.90;;;;;;7430165;19;20003;-93
2021/08/29 07:12:01;;;;;;;7.53;3.80;;;15.50;99.90;;;;;;7427392;19;20010;-92
2021/08/29 07:14:54;;;;;;;7.20;4.07;;;15.60;99.90;;;;;;7430831;19;20006;-91
2021/08/29 07:17:23;;;;;;;7.57;3.88;;;15.60;99.90;;;;;;7429361;19;20100;-94
2021/08/29 07:19:55;;;;;;;6.60;4.15;;;15.70;99.90;;;;;;7404541;19;20021;-92
2021/08/29 07:22:57;;;;;;;6.10;3.83;;;15.80;99.90;;;;;;7406598;19;20010;-93
2021/08/29 07:25:47;;;;;;;6.97;4.30;;;15.90;99.90;;;;;;7405856;19;20006;-95
2021/08/29 07:28:55;;;;;;;8.35;4.53;;;15.80;99.90;;;;;;7407089;19;20039;-94
2021/08/29 07:31:46;;;;;;;7.63;4.88;;;15.90;99.90;;;;;;7407540;19;20025;-95
2021/08/29 07:34:17;;;;;;;7.28;4.53;;;15.80;99.90;;;;;;7409616;19;20010;-89
2021/08/29 07:37:07;;;;;;;7.05;4.47;;;15.90;99.90;;;;;;7413829;19;20010;-90
2021/08/29 07:39:36;;;;;;;9.23;5.10;;;16.10;99.90;;;;;;7410345;19;20010;-92
2021/08/29 07:42:06;;;;;;;8.52;4.80;;;16.30;99.90;;;;;;7413866;19;20010;-90
2021/08/29 07:44:37;;;;;;;7.55;4.70;;;16.40;99.90;;;;;;7405789;19;20011;-90
2021/08/29 07:47:10;;;;;;;7.45;4.68;;;16.50;99.90;;;;;;7415431;19;20034;-90
2021/08/29 07:49:40;;;;;;;6.13;4.20;;;16.50;99.90;;;;;;7420519;19;20027;-91
2021/08/29 07:52:13;;;;;;;6.35;4.10;;;16.60;99.90;;;;;;7424051;19;20010;-90
2021/08/29 07:55:03;;;;;;;6.68;4.57;;;16.60;99.90;;;;;;7423073;19;20002;-90
2021/08/29 07:58:08;;;;;;;7.28;4.00;;;16.70;99.90;;;;;;7424273;19;20023;-88
2021/08/29 08:00:38;;;;;;;6.85;4.57;;;16.80;99.90;;;;;;7415366;19;20006;-89
2021/08/29 08:03:29;;;;;;;;;;;16.90;99.90;;;;;;7411504;19;20011;-89
2021/08/29 08:06:18;;;;;;;6.68;4.28;;;16.90;99.90;;;;;;7410100;19;19910;-89
2021/08/29 08:09:06;;;;;;;8.40;4.50;;;17.10;99.90;;;;;;7410534;19;20100;-89
2021/08/29 08:11:54;;;;;;;8.07;3.90;;;17.20;99.90;;;;;;7406633;19;20294;-89
2021/08/29 08:14:25;;;;;;;5.85;3.90;;;17.30;99.90;;;;;;7407518;19;20021;-89
2021/08/29 08:16:54;;;;;;;6.90;3.53;;;17.40;99.90;;;;;;7419977;19;20018;-90
2021/08/29 08:19:33;;;;;;;5.63;3.42;;;17.50;99.90;;;;;;7432334;19;20055;-89
2021/08/29 08:22:02;;;;;;;6.47;3.47;;;17.50;99.90;;;;;;7412900;19;20010;-89
2021/08/29 08:24:50;;;;;;;5.85;3.35;;;17.50;99.90;;;;;;7405723;19;20009;-89
2021/08/29 08:27:39;;;;;;;4.38;2.80;;;17.60;99.90;;;;;;7406701;19;20013;-89
2021/08/29 08:30:29;;;;;;;5.30;3.25;;;17.60;99.90;;;;;;7403809;19;20010;-89
2021/08/29 08:33:17;;;;;;;7.68;3.45;;;17.60;99.90;;;;;;7405902;19;20003;-88
2021/08/29 08:36:22;;;;;;;4.47;2.88;;;17.50;99.90;;;;;;7406365;19;20042;-89
2021/08/29 08:39:02;;;;;;;4.70;3.20;;;17.50;99.90;;;;;;7404839;19;20006;-90
2021/08/29 08:41:48;;;;;;;5.57;3.15;;;17.40;99.90;;;;;;7418863;19;20010;-91
2021/08/29 08:44:42;;;;;;;6.43;3.30;;;17.40;99.90;;;;;;7410847;19;20011;-91
2021/08/29 08:47:36;;;;;;;4.57;3.13;;;17.40;99.90;;;;;;7404828;19;20017;-90
2021/08/29 08:50:24;;;;;;;;;;;17.50;99.90;;;;;;7423666;19;20017;-89
2021/08/29 08:53:17;;;;;;;;;;;17.50;99.90;;;;;;7414033;19;19907;-92
2021/08/29 08:56:06;;;;;;;5.30;3.50;;;17.50;99.90;;;;;;7405792;19;19911;-90
2021/08/29 08:59:04;;;;;;;5.55;3.83;;;17.50;99.90;;;;;;7400587;19;20027;-90
2021/08/29 09:02:01;;;;;;;8.38;4.93;;;17.50;99.90;;;;;;7399285;19;20011;-91
2021/08/29 09:05:06;;;;;;;6.25;4.20;;;17.60;99.90;;;;;;7403278;19;20014;-90
2021/08/29 09:07:36;;;;;;;6.68;5.15;;;17.60;99.90;;;;;;7408864;19;20018;-92
2021/08/29 09:10:11;;;;;;;9.55;6.55;;;17.60;99.90;;;;;;7405644;19;20015;-90
2021/08/29 09:12:56;;;;;;;9.80;6.57;;;17.60;99.90;;;;;;7401990;19;20417;-90
2021/08/29 09:15:27;;;;;;;8.73;5.90;;;17.60;99.90;;;;;;7405717;19;20095;-90
2021/08/29 09:17:57;;;;;;;7.15;5.70;;;17.50;99.90;;;;;;7404379;19;20054;-90
2021/08/29 09:20:29;;;;;;;7.55;6.22;;;17.50;99.90;;;;;;7404336;19;20021;-90
2021/08/29 09:23:02;;;;;;;7.05;5.90;;;17.40;99.90;;;;;;7421449;19;20003;-91
2021/08/29 09:25:50;;;;;;;7.63;5.75;;;17.30;99.90;;;;;;7415794;19;20011;-90
2021/08/29 09:28:42;;;;;;;7.53;5.63;;;17.30;99.90;;;;;;7403766;19;19998;-90
2021/08/29 09:31:14;;;;;;;9.32;7.15;;;17.30;99.90;;;;;;7409048;19;20010;-92
2021/08/29 09:33:59;;;;;;;7.13;5.68;;;17.30;99.90;;;;;;7404937;19;21754;-91
2021/08/29 09:36:35;;;;;;;8.65;6.35;;;17.30;99.90;;;;;;7401366;19;20021;-91
2021/08/29 09:39:40;;;;;;;7.20;5.65;;;17.30;99.90;;;;;;7404071;19;20133;-90
2021/08/29 09:42:26;;;;;;;9.52;5.90;;;17.30;99.90;;;;;;7403048;19;20010;-90
2021/08/29 09:45:28;;;;;;;6.00;5.03;;;17.30;99.90;;;;;;7402000;19;20030;-91
2021/08/29 09:48:18;;;;;;;6.93;5.25;;;17.40;99.90;;;;;;7402616;19;20006;-90
2021/08/29 09:51:15;;;;;;;7.43;5.93;;;17.40;99.90;;;;;;7410119;19;20095;-90
2021/08/29 09:54:00;;;;;;;7.93;6.07;;;17.50;99.90;;;;;;7415106;19;20452;-89
2021/08/29 09:56:54;;;;;;;7.90;6.15;;;17.50;99.90;;;;;;7409108;19;20013;-90
2021/08/29 09:59:43;;;;;;;7.43;5.72;;;17.50;99.90;;;;;;7407042;19;20017;-91
2021/08/29 10:02:26;;;;;;;7.80;6.00;;;17.50;99.90;;;;;;7407664;19;20040;-91
2021/08/29 10:05:16;;;;;;;8.25;6.18;;;17.40;99.90;;;;;;7409299;19;20026;-91
2021/08/29 10:08:00;;;;;;;10.23;7.30;;;17.40;99.90;;;;;;7406988;19;20095;-90
2021/08/29 10:10:33;;;;;;;8.07;6.57;;;17.30;99.90;;;;;;7411749;19;20044;-92
2021/08/29 10:13:08;;;;;;;9.32;6.63;;;17.20;99.90;;;;;;7412689;19;20009;-92
2021/08/29 10:15:41;;;;;;;8.15;6.32;;;17.10;99.90;;;;;;7411205;19;20070;-92
2021/08/29 10:18:42;;;;;;;8.80;6.72;;;17.00;99.90;;;;;;7407413;19;20014;-92
2021/08/29 10:21:35;;;;;;;10.43;7.43;;;16.80;99.90;;;;;;7406241;19;19999;-92
2021/08/29 10:24:08;;;;;;;9.48;6.82;;;16.70;99.90;;;;;;7409517;19;20018;-92
2021/08/29 10:26:41;;;;;;;8.63;6.47;;;16.70;99.90;;;;;;7411789;19;20010;-89
2021/08/29 10:29:33;;;;;;;11.48;7.85;;;16.70;99.90;;;;;;7420210;19;20466;-93
2021/08/29 10:32:45;;;;;;;8.20;7.13;;;16.70;99.90;;;;;;7423425;19;20007;-92
2021/08/29 10:35:34;;;;;;;8.77;7.50;;;16.80;99.90;;;;;;7415329;19;20066;-92
2021/08/29 10:38:26;;;;;;;11.27;7.55;;;16.80;99.90;;;;;;7407116;19;20212;-89
2021/08/29 10:41:26;;;;;;;10.88;7.65;;;16.80;99.90;;;;;;7413420;19;20010;-95
2021/08/29 10:44:03;;;;;;;11.85;8.57;;;16.50;99.90;;;;;;7417779;19;20010;-94
2021/08/29 10:47:05;;;;;;;11.93;8.60;;;16.40;99.90;;;;;;7412671;19;20011;-94
2021/08/29 10:50:20;;;;;;;11.32;7.80;;;16.40;99.90;;;;;;7429536;19;20050;-94
2021/08/29 10:52:53;;;;;;;12.50;7.85;;;16.50;99.90;;;;;;7430912;19;20011;-93
2021/08/29 10:55:32;;;;;;;11.88;9.05;;;16.50;99.90;;;;;;7421824;19;20010;-94
2021/08/29 10:58:07;;;;;;;9.30;7.72;;;16.50;99.90;;;;;;7414186;19;20021;-93
2021/08/29 11:00:38;;;;;;;9.65;7.28;;;16.50;99.90;;;;;;7420171;19;20003;-93
2021/08/29 11:03:31;;;;;;;11.80;8.48;;;16.50;99.90;;;;;;7413077;19;20018;-92
2021/08/29 11:06:50;;;;;;;9.82;7.40;;;16.40;99.90;;;;;;7411199;19;20321;-94
2021/08/29 11:09:47;;;;;;;9.02;6.95;;;16.50;99.90;;;;;;7411419;19;20018;-94
2021/08/29 11:12:33;;;;;;;8.63;6.10;;;16.70;99.90;;;;;;7408850;19;20003;-94
2021/08/29 11:15:10;;;;;;;6.32;4.47;;;16.90;99.90;;;;;;7404832;19;20014;-93
2021/08/29 11:17:43;;;;;;;7.85;5.05;;;17.10;99.90;;;;;;7409142;19;20011;-94
2021/08/29 11:20:18;;;;;;;4.72;3.20;;;17.40;99.90;;;;;;7405371;19;20020;-94
2021/08/29 11:22:58;;;;;;;5.78;3.55;;;17.60;99.90;;;;;;7406300;19;20017;-95
2021/08/29 11:26:34;;;;;;;7.03;4.10;;;18.00;99.90;;;;;;7408818;19;20312;-92
2021/08/29 11:29:54;;;;;;;6.35;4.40;;;18.10;99.90;;;;;;7417203;19;20473;-95
2021/08/29 11:32:36;;;;;;;7.03;3.97;;;18.10;99.90;;;;;;7414643;19;20031;-93
2021/08/29 11:35:12;;;;;;;5.50;3.80;;;18.30;99.90;;;;;;7412278;19;20019;-93
2021/08/29 11:38:11;;;;;;;5.03;3.38;;;18.30;99.90;;;;;;7408117;19;20002;-90
2021/08/29 11:41:01;;;;;;;3.58;2.53;;;18.60;99.90;;;;;;7408936;19;20036;-91
2021/08/29 11:43:41;;;;;;;5.47;2.70;;;18.80;99.90;;;;;;7407800;19;20006;-91
2021/08/29 11:46:17;;;;;;;4.30;2.10;;;18.60;99.90;;;;;;7407401;19;20010;-89
2021/08/29 11:49:09;;;;;;;3.50;2.10;;;18.00;99.90;;;;;;7422755;19;20010;-92
2021/08/29 11:51:46;;;;;;;3.97;2.40;;;17.50;99.90;;;;;;7404193;19;20077;-93
2021/08/29 11:54:22;;;;;;;3.72;2.42;;;17.50;99.90;;;;;;7405523;19;20019;-93
2021/08/29 11:56:57;;;;;;;3.75;2.70;;;17.60;99.90;;;;;;7403005;19;20007;-93
2021/08/29 11:59:31;;;;;;;4.30;2.97;;;17.70;99.90;;;;;;7403686;19;20010;-93
2021/08/29 12:02:06;;;;;;;4.03;2.67;;;17.70;99.90;;;;;;7402192;19;20014;-93
2021/08/29 12:04:44;;;;;;;5.22;3.20;;;17.70;99.90;;;;;;7401517;19;20436;-91
2021/08/29 12:07:36;;;;;;;5.07;3.10;;;17.60;99.90;;;;;;7421400;19;20316;-92
2021/08/29 12:10:31;;;;;;;5.63;3.33;;;17.60;99.90;;;;;;7413103;19;20014;-91
2021/08/29 12:13:19;;;;;;;6.78;4.28;;;17.60;99.90;;;;;;7409071;19;20444;-90
2021/08/29 12:16:27;;;;;;;;;;;17.70;99.90;;;;;;7411654;19;20010;-91
2021/08/29 12:19:02;;;;;;;5.43;3.22;;;17.90;99.90;;;;;;7403379;19;19914;-96
2021/08/29 12:21:51;;;;;;;8.65;4.65;;;18.10;99.90;;;;;;7407448;19;20010;-90
2021/08/29 12:24:44;;;;;;;6.03;4.00;;;18.40;99.90;;;;;;7402277;19;20011;-93
2021/08/29 12:27:21;;;;;;;4.78;3.40;;;18.80;99.90;;;;;;7405636;19;20048;-92
2021/08/29 12:29:56;;;;;;;4.60;2.78;;;18.90;99.90;;;;;;7401489;19;20013;-90
2021/08/29 12:32:28;;;;;;;5.40;3.40;;;19.10;99.90;;;;;;7410191;19;20010;-90
2021/08/29 12:35:04;;;;;;;4.40;3.00;;;19.30;99.90;;;;;;7406412;19;20030;-89
2021/08/29 12:37:36;;;;;;;5.05;3.25;;;19.40;99.90;;;;;;7411847;19;20025;-90
2021/08/29 12:40:15;;;;;;;;;;;19.50;99.90;;;;;;7411587;19;20018;-92
2021/08/29 12:42:55;;;;;;;4.95;2.75;;;19.40;99.90;;;;;;7406549;19;19927;-91
2021/08/29 12:45:28;;;;;;;5.07;2.70;;;19.40;99.90;;;;;;7412036;19;20010;-91
2021/08/29 12:47:58;;;;;;;4.70;2.60;;;19.40;99.90;;;;;;7402595;19;20019;-92
2021/08/29 12:50:34;;;;;;;5.63;2.40;;;19.40;99.90;;;;;;7400342;19;20022;-91
2021/08/29 12:53:07;;;;;;;5.30;2.20;;;19.50;99.90;;;;;;7400939;19;20057;-91
2021/08/29 12:55:40;;;;;;;4.03;2.60;;;19.50;99.90;;;;;;7402162;19;20106;-91
2021/08/29 12:58:16;;;;;;;5.43;2.80;;;19.50;99.90;;;;;;7402764;19;20439;-90
2021/08/29 13:00:47;;;;;;;4.70;2.95;;;19.40;99.90;;;;;;7399441;19;20091;-91
2021/08/29 13:03:19;;;;;;;4.53;2.95;;;19.40;99.90;;;;;;7404475;19;20040;-91
2021/08/29 13:05:53;;;;;;;5.50;3.17;;;19.40;99.90;;;;;;7401705;19;20006;-90
2021/08/29 13:08:40;;;;;;;4.40;2.83;;;19.40;99.90;;;;;;7402604;19;20017;-91
2021/08/29 13:11:12;;;;;;;4.20;2.72;;;19.40;99.90;;;;;;7407695;19;20007;-90
2021/08/29 13:13:49;;;;;;;5.75;3.28;;;19.30;99.90;;;;;;7404178;19;20021;-90
2021/08/29 13:16:21;;;;;;;4.57;3.17;;;19.40;99.90;;;;;;7414022;19;20003;-90
2021/08/29 13:19:04;;;;;;;3.92;2.50;;;19.50;99.90;;;;;;7415424;19;20006;-90
2021/08/29 13:21:40;;;;;;;5.13;2.47;;;19.40;99.90;;;;;;7408623;19;20069;-93
2021/08/29 13:24:35;;;;;;;5.65;2.97;;;19.30;99.90;;;;;;7407192;19;20282;-93
2021/08/29 13:27:16;;;;;;;4.43;2.47;;;19.00;99.90;;;;;;7413462;19;20003;-93
2021/08/29 13:29:49;;;;;;;5.32;2.78;;;18.90;99.90;;;;;;7415649;19;20018;-94
2021/08/29 13:32:21;;;;;;;4.90;2.67;;;18.50;99.90;;;;;;7415572;19;20344;-95
2021/08/29 13:34:52;;;;;;;5.53;2.80;;;18.20;99.90;;;;;;7414508;19;20042;-94
2021/08/29 13:37:23;;;;;;;5.65;3.28;;;18.20;99.90;;;;;;7412350;19;20034;-93
2021/08/29 13:39:55;;;;;;;5.40;2.85;;;18.30;99.90;;;;;;7414730;19;20006;-93
2021/08/29 13:42:25;;;;;;;4.93;2.83;;;18.30;99.90;;;;;;7412810;19;20017;-91
2021/08/29 13:44:59;;;;;;;6.68;3.17;;;18.40;99.90;;;;;;7412119;19;20010;-91
2021/08/29 13:47:30;;;;;;;4.53;2.80;;;18.50;99.90;;;;;;7418477;19;20046;-92
2021/08/29 13:50:01;;;;;;;5.78;2.85;;;18.60;99.90;;;;;;7415642;19;20313;-92